createdAt,value
2022-08-05T00:00:00.318Z,99856.03
2022-08-05T00:02:28.727Z,99862.63
2022-08-05T00:04:57.628Z,99868.97
2022-08-05T00:07:58.873Z,99862.50
2022-08-05T00:10:14.356Z,99861.31
2022-08-05T00:12:56.841Z,99855.31
2022-08-05T00:15:55.906Z,99859.66
2022-08-05T00:18:21.734Z,99855.50
2022-08-05T00:20:51.470Z,99854.63
2022-08-05T00:23:44.443Z,99862.66
2022-08-05T00:26:08.116Z,99858.81
2022-08-05T00:28:35.168Z,99849.47
2022-08-05T00:31:04.730Z,99853.00
2022-08-05T00:34:53.186Z,99848.00
2022-08-05T00:37:11.754Z,99846.31
2022-08-05T00:39:13.944Z,99844.13
2022-08-05T00:41:51.778Z,99838.63
2022-08-05T00:44:30.981Z,99835.28
2022-08-05T00:47:01.619Z,99836.97
2022-08-05T00:49:32.684Z,99843.63
2022-08-05T00:52:12.680Z,99829.59
2022-08-05T00:54:41.408Z,99830.94
2022-08-05T00:57:12.132Z,99834.28
2022-08-05T00:59:44.421Z,99823.25
2022-08-05T01:02:13.662Z,99831.00
2022-08-05T01:04:44.367Z,99819.47
2022-08-05T01:07:18.558Z,99827.75
2022-08-05T01:09:46.414Z,99828.25
2022-08-05T01:12:25.392Z,99827.75
2022-08-05T01:15:03.804Z,99823.91
2022-08-05T01:17:43.935Z,99831.59
2022-08-05T01:20:47.970Z,99829.94
2022-08-05T01:23:54.099Z,99831.59
2022-08-05T01:26:42.042Z,99835.97
2022-08-05T01:29:25.031Z,99834.13
2022-08-05T01:31:58.930Z,99832.78
2022-08-05T01:34:38.250Z,99826.97
2022-08-05T01:37:25.889Z,99830.91
2022-08-05T01:39:58.994Z,99837.66
2022-08-05T01:42:30.123Z,99825.41
2022-08-05T01:45:02.389Z,99831.31
2022-08-05T01:47:39.476Z,99833.81
2022-08-05T01:50:17.535Z,99826.78
2022-08-05T01:52:49.853Z,99823.28
2022-08-05T01:55:22.398Z,99824.78
2022-08-05T01:58:13.574Z,99827.47
2022-08-05T02:00:45.981Z,99813.31
2022-08-05T02:03:36.536Z,99823.84
2022-08-05T02:06:37.314Z,99814.22
2022-08-05T02:08:59.370Z,99810.97
2022-08-05T02:11:42.257Z,99804.63
2022-08-05T02:14:20.935Z,99801.28
2022-08-05T02:16:54.233Z,99806.44
2022-08-05T02:19:47.626Z,99807.91
2022-08-05T02:22:59.978Z,99806.44
2022-08-05T02:25:35.927Z,99810.97
2022-08-05T02:28:28.431Z,99812.16
2022-08-05T02:31:14.569Z,99811.66
2022-08-05T02:33:59.011Z,99812.81
2022-08-05T02:36:31.392Z,99817.78
2022-08-05T02:39:03.932Z,99808.97
2022-08-05T02:41:58.262Z,99819.16
2022-08-05T02:44:27.006Z,99820.47
2022-08-05T02:47:00.287Z,99829.34
2022-08-05T02:49:44.545Z,99822.66
2022-08-05T02:52:29.530Z,99830.13
2022-08-05T02:55:01.794Z,99825.31
2022-08-05T02:58:19.693Z,99825.47
2022-08-05T03:00:21.689Z,99824.59
2022-08-05T03:02:49.655Z,99832.59
2022-08-05T03:05:21.665Z,99826.72
2022-08-05T03:08:09.601Z,99832.00
2022-08-05T03:10:37.655Z,99830.16
2022-08-05T03:13:16.876Z,99819.22
2022-08-05T03:15:46.412Z,99812.97
2022-08-05T03:18:17.280Z,99817.69
2022-08-05T03:20:48.980Z,99806.91
2022-08-05T03:23:18.378Z,99817.41
2022-08-05T03:26:03.674Z,99818.22
2022-08-05T03:28:39.349Z,99816.53
2022-08-05T03:31:08.252Z,99814.34
2022-08-05T03:33:51.323Z,99816.56
2022-08-05T03:36:30.183Z,99819.78
2022-08-05T03:38:58.834Z,99823.84
2022-08-05T03:41:26.552Z,99822.19
2022-08-05T03:44:10.356Z,99815.72
2022-08-05T03:46:38.627Z,99825.03
2022-08-05T03:49:06.723Z,99817.41
2022-08-05T03:52:39.332Z,99825.25
2022-08-05T03:56:01.591Z,99825.91
2022-08-05T03:57:46.251Z,99823.75
2022-08-05T04:00:26.435Z,99830.09
2022-08-05T04:02:58.524Z,99827.78
2022-08-05T04:05:33.928Z,99828.94
2022-08-05T04:08:05.517Z,99830.13
2022-08-05T04:10:45.209Z,99833.47
2022-08-05T04:13:12.019Z,99826.31
2022-08-05T04:15:39.945Z,99841.84
2022-08-05T04:18:27.912Z,99837.00
2022-08-05T04:20:57.385Z,99835.50
2022-08-05T04:24:05.452Z,99825.66
2022-08-05T04:26:15.615Z,99833.00
2022-08-05T04:28:51.086Z,99832.66
2022-08-05T04:31:20.021Z,99833.28
2022-08-05T04:34:17.343Z,99834.47
2022-08-05T04:36:49.512Z,99828.66
2022-08-05T04:39:18.398Z,99823.16
2022-08-05T04:41:48.533Z,99824.59
2022-08-05T04:44:29.846Z,99816.09
2022-08-05T04:46:58.932Z,99828.28
2022-08-05T04:49:38.446Z,99828.84
2022-08-05T04:52:16.289Z,99823.44
2022-08-05T04:54:47.199Z,99822.66
2022-08-05T04:57:19.916Z,99821.81
2022-08-05T04:59:48.717Z,99822.47
2022-08-05T05:02:41.956Z,99816.78
2022-08-05T05:05:16.605Z,99820.06
2022-08-05T05:07:56.135Z,99812.84
2022-08-05T05:10:27.001Z,99812.16
2022-08-05T05:13:01.921Z,99818.38
2022-08-05T05:15:56.120Z,99815.31
2022-08-05T05:18:31.013Z,99814.38
2022-08-05T05:21:00.824Z,99811.75
2022-08-05T05:23:39.097Z,99813.63
2022-08-05T05:26:16.208Z,99814.34
2022-08-05T05:28:45.085Z,99807.53
2022-08-05T05:31:13.830Z,99808.47
2022-08-05T05:33:58.570Z,99807.53
2022-08-05T05:36:28.841Z,99817.59
2022-08-05T05:38:57.380Z,99814.88
2022-08-05T05:41:24.228Z,99812.75
2022-08-05T05:43:57.449Z,99806.72
2022-08-05T05:46:26.789Z,99810.31
2022-08-05T05:48:53.424Z,99810.06
2022-08-05T05:51:25.639Z,99818.88
2022-08-05T05:53:59.021Z,99817.81
2022-08-05T05:56:33.234Z,99817.84
2022-08-05T05:59:03.567Z,99819.25
2022-08-05T06:01:37.654Z,99817.31
2022-08-05T06:04:11.761Z,99816.44
2022-08-05T06:06:47.400Z,99818.38
2022-08-05T06:09:16.806Z,99818.31
2022-08-05T06:11:59.208Z,99814.41
2022-08-05T06:14:29.240Z,99817.06
2022-08-05T06:16:56.884Z,99821.94
2022-08-05T06:19:34.072Z,99814.72
2022-08-05T06:22:06.482Z,99818.81
2022-08-05T06:24:34.866Z,99832.31
2022-08-05T06:27:03.982Z,99819.63
2022-08-05T06:29:49.556Z,99823.19
2022-08-05T06:32:25.585Z,99825.09
2022-08-05T06:34:56.524Z,99819.56
2022-08-05T06:37:55.867Z,99824.00
2022-08-05T06:40:18.155Z,99825.69
2022-08-05T06:42:52.107Z,99817.13
2022-08-05T06:45:20.735Z,99827.44
2022-08-05T06:48:47.060Z,99831.91
2022-08-05T06:50:34.767Z,99841.09
2022-08-05T06:53:03.708Z,99833.88
2022-08-05T06:55:38.028Z,99834.16
2022-08-05T06:58:19.885Z,99840.09
2022-08-05T07:00:47.157Z,99831.13
2022-08-05T07:03:14.066Z,99843.28
2022-08-05T07:05:43.402Z,99844.63
2022-08-05T07:08:11.124Z,99838.28
2022-08-05T07:10:38.866Z,99837.38
2022-08-05T07:13:59.375Z,99836.41
2022-08-05T07:18:07.104Z,99829.94
2022-08-05T07:20:22.949Z,99823.97
2022-08-05T07:22:15.947Z,99836.22
2022-08-05T07:24:43.909Z,99825.06
2022-08-05T07:27:19.202Z,99826.16
2022-08-05T07:30:27.726Z,99830.50
2022-08-05T07:32:38.660Z,99833.97
2022-08-05T07:36:02.373Z,99831.13
2022-08-05T07:37:55.992Z,99834.44
2022-08-05T07:40:31.616Z,99825.22
2022-08-05T07:42:59.463Z,99829.13
2022-08-05T07:45:58.200Z,99824.47
2022-08-05T07:49:00.667Z,99835.97
2022-08-05T07:51:22.920Z,99838.78
2022-08-05T07:53:51.642Z,99839.69
2022-08-05T07:56:59.931Z,99829.63
2022-08-05T07:59:05.321Z,99845.44
2022-08-05T08:01:35.438Z,99835.00
2022-08-05T08:04:08.368Z,99842.25
2022-08-05T08:06:35.106Z,99848.63
2022-08-05T08:09:01.730Z,99844.25
2022-08-05T08:11:47.580Z,99844.47
2022-08-05T08:14:19.029Z,99846.31
2022-08-05T08:16:50.839Z,99840.31
2022-08-05T08:20:22.477Z,99851.53
2022-08-05T08:22:09.011Z,99839.56
2022-08-05T08:24:51.284Z,99838.63
2022-08-05T08:27:18.714Z,99847.09
2022-08-05T08:30:05.559Z,99850.78
2022-08-05T08:32:34.974Z,99846.81
2022-08-05T08:35:13.531Z,99855.56
2022-08-05T08:37:40.616Z,99843.53
2022-08-05T08:40:12.530Z,99840.69
2022-08-05T08:42:46.941Z,99842.81
2022-08-05T08:45:26.733Z,99844.81
2022-08-05T08:48:10.743Z,99849.91
2022-08-05T08:51:22.612Z,99842.94
2022-08-05T08:53:40.263Z,99845.50
2022-08-05T08:56:11.798Z,99841.44
2022-08-05T08:58:44.563Z,99835.34
2022-08-05T09:01:17.050Z,99836.47
2022-08-05T09:03:52.887Z,99829.13
2022-08-05T09:06:24.154Z,99831.81
2022-08-05T09:08:55.597Z,99827.56
2022-08-05T09:11:51.371Z,99828.00
2022-08-05T09:14:57.502Z,99823.88
2022-08-05T09:16:55.950Z,99833.69
2022-08-05T09:19:27.901Z,99831.09
2022-08-05T09:22:23.456Z,99824.53
2022-08-05T09:25:00.767Z,99821.16
2022-08-05T09:28:04.212Z,99815.88
2022-08-05T09:30:23.354Z,99824.66
2022-08-05T09:32:51.582Z,99818.25
2022-08-05T09:35:27.110Z,99814.84
2022-08-05T09:38:12.730Z,99818.03
2022-08-05T09:40:52.651Z,99822.53
2022-08-05T09:43:40.774Z,99817.59
2022-08-05T09:46:27.414Z,99810.88
2022-08-05T09:49:06.822Z,99812.88
2022-08-05T09:51:37.548Z,99816.97
2022-08-05T09:54:09.478Z,99809.94
2022-08-05T09:56:38.799Z,99808.81
2022-08-05T09:59:08.310Z,99800.75
2022-08-05T10:01:40.382Z,99803.31
2022-08-05T10:04:16.067Z,99805.72
2022-08-05T10:06:59.602Z,99794.09
2022-08-05T10:09:29.488Z,99806.78
2022-08-05T10:12:30.775Z,99804.94
2022-08-05T10:15:16.247Z,99789.84
2022-08-05T10:17:54.635Z,99797.19
2022-08-05T10:20:25.568Z,99795.41
2022-08-05T10:22:52.666Z,99802.09
2022-08-05T10:25:19.606Z,99803.03
2022-08-05T10:28:13.723Z,99800.19
2022-08-05T10:32:46.714Z,99794.53
2022-08-05T10:33:28.981Z,99795.97
2022-08-05T10:35:59.631Z,99792.00
2022-08-05T10:38:28.783Z,99786.97
2022-08-05T10:41:13.900Z,99787.41
2022-08-05T10:43:50.916Z,99789.75
2022-08-05T10:46:23.770Z,99782.09
2022-08-05T10:49:09.856Z,99786.06
2022-08-05T10:51:59.678Z,99790.34
2022-08-05T10:54:56.232Z,99780.81
2022-08-05T10:57:31.755Z,99777.56
2022-08-05T11:00:23.538Z,99771.09
2022-08-05T11:03:25.258Z,99759.25
2022-08-05T11:06:15.714Z,99757.34
2022-08-05T11:09:02.731Z,99757.59
2022-08-05T11:11:44.349Z,99752.69
2022-08-05T11:15:11.519Z,99745.91
2022-08-05T11:18:00.216Z,99759.69
2022-08-05T11:20:46.212Z,99751.84
2022-08-05T11:24:04.240Z,99754.22
2022-08-05T11:26:38.062Z,99752.72
2022-08-05T11:29:13.537Z,99745.44
2022-08-05T11:31:56.648Z,99745.56
2022-08-05T11:34:51.688Z,99755.69
2022-08-05T11:38:30.194Z,99757.44
2022-08-05T11:41:03.437Z,99743.75
2022-08-05T11:44:07.773Z,99745.50
2022-08-05T11:46:58.344Z,99743.75
2022-08-05T11:49:37.277Z,99739.75
2022-08-05T11:52:11.628Z,99740.84
2022-08-05T11:54:40.550Z,99746.97
2022-08-05T11:57:39.396Z,99737.66
2022-08-05T11:59:55.129Z,99749.03
2022-08-05T12:02:33.092Z,99741.69
2022-08-05T12:05:07.374Z,99738.41
2022-08-05T12:08:03.304Z,99742.50
2022-08-05T12:10:38.652Z,99731.69
2022-08-05T12:13:15.668Z,99731.84
2022-08-05T12:15:50.247Z,99721.22
2022-08-05T12:18:32.764Z,99719.97
2022-08-05T12:21:33.931Z,99724.13
2022-08-05T12:24:08.719Z,99726.13
2022-08-05T12:26:37.554Z,99713.03
2022-08-05T12:29:25.182Z,99714.94
2022-08-05T12:31:58.581Z,99711.00
2022-08-05T12:34:32.497Z,99715.53
2022-08-05T12:37:10.824Z,99711.75
2022-08-05T12:39:45.042Z,99708.44
2022-08-05T12:42:19.960Z,99711.44
2022-08-05T12:44:47.742Z,99705.59
2022-08-05T12:47:36.803Z,99704.69
2022-08-05T12:50:16.905Z,99704.53
2022-08-05T12:52:59.768Z,99702.28
2022-08-05T12:55:32.756Z,99695.06
2022-08-05T12:58:50.508Z,99695.06
2022-08-05T13:02:01.007Z,99703.22
2022-08-05T13:03:42.431Z,99692.88
2022-08-05T13:06:17.240Z,99696.22
2022-08-05T13:08:49.119Z,99687.13
2022-08-05T13:11:57.884Z,99681.38
2022-08-05T13:14:20.434Z,99679.28
2022-08-05T13:16:58.850Z,99674.22
2022-08-05T13:19:51.631Z,99673.53
2022-08-05T13:22:28.504Z,99675.81
2022-08-05T13:25:05.532Z,99671.38
2022-08-05T13:27:39.662Z,99673.00
2022-08-05T13:30:35.313Z,99665.41
2022-08-05T13:33:01.318Z,99666.47
2022-08-05T13:35:42.676Z,99664.78
2022-08-05T13:38:20.252Z,99661.81
2022-08-05T13:40:57.084Z,99659.34
2022-08-05T13:43:23.745Z,99660.13
2022-08-05T13:46:12.246Z,99654.38
2022-08-05T13:48:58.358Z,99653.38
2022-08-05T13:51:40.439Z,99647.59
2022-08-05T13:54:13.476Z,99647.25
2022-08-05T13:56:50.429Z,99640.31
2022-08-05T13:59:24.196Z,99643.81
2022-08-05T14:01:58.980Z,99645.31
2022-08-05T14:04:51.623Z,99642.75
2022-08-05T14:07:55.487Z,99639.25
2022-08-05T14:10:28.833Z,99638.94
2022-08-05T14:12:57.848Z,99631.72
2022-08-05T14:16:08.352Z,99631.50
2022-08-05T14:18:17.789Z,99636.31
2022-08-05T14:20:49.024Z,99641.41
2022-08-05T14:23:25.423Z,99631.38
2022-08-05T14:25:54.532Z,99625.97
2022-08-05T14:28:27.059Z,99626.53
2022-08-05T14:30:58.183Z,99628.31
2022-08-05T14:33:24.966Z,99629.84
2022-08-05T14:35:54.342Z,99616.13
2022-08-05T14:38:32.192Z,99624.78
2022-08-05T14:41:05.840Z,99625.09
2022-08-05T14:43:59.629Z,99620.31
2022-08-05T14:46:21.890Z,99622.16
2022-08-05T14:48:49.187Z,99616.78
2022-08-05T14:51:17.561Z,99615.28
2022-08-05T14:53:46.365Z,99603.56
2022-08-05T14:56:33.129Z,99609.69
2022-08-05T14:59:00.005Z,99606.53
2022-08-05T15:01:48.751Z,99603.97
2022-08-05T15:04:14.322Z,99603.59
2022-08-05T15:06:41.029Z,99600.28
2022-08-05T15:09:15.928Z,99598.31
2022-08-05T15:11:51.651Z,99599.31
2022-08-05T15:14:35.795Z,99597.78
2022-08-05T15:17:14.642Z,99596.31
2022-08-05T15:19:55.118Z,99590.72
2022-08-05T15:22:22.025Z,99592.97
2022-08-05T15:24:54.423Z,99590.44
2022-08-05T15:27:21.040Z,99581.47
2022-08-05T15:29:47.655Z,99582.63
2022-08-05T15:32:16.789Z,99583.38
2022-08-05T15:34:43.491Z,99571.84
2022-08-05T15:37:14.127Z,99578.94
2022-08-05T15:41:01.027Z,99569.50
2022-08-05T15:42:55.733Z,99574.66
2022-08-05T15:45:16.848Z,99575.66
2022-08-05T15:47:46.378Z,99559.69
2022-08-05T15:50:15.888Z,99560.75
2022-08-05T15:52:52.948Z,99554.66
2022-08-05T15:55:24.730Z,99546.63
2022-08-05T15:58:16.528Z,99553.69
2022-08-05T16:00:50.946Z,99553.28
2022-08-05T16:03:32.660Z,99543.69
2022-08-05T16:06:00.771Z,99545.78
2022-08-05T16:08:30.410Z,99540.50
2022-08-05T16:10:57.387Z,99535.03
2022-08-05T16:13:24.165Z,99531.59
2022-08-05T16:16:01.224Z,99533.94
2022-08-05T16:18:31.303Z,99534.09
2022-08-05T16:21:03.919Z,99541.53
2022-08-05T16:23:32.964Z,99529.50
2022-08-05T16:26:18.234Z,99530.69
2022-08-05T16:28:44.930Z,99531.28
2022-08-05T16:31:11.575Z,99533.50
2022-08-05T16:33:41.655Z,99534.91
2022-08-05T16:36:09.152Z,99533.06
2022-08-05T16:38:35.897Z,99538.13
2022-08-05T16:41:21.644Z,99540.66
2022-08-05T16:43:49.773Z,99534.59
2022-08-05T16:46:24.433Z,99531.03
2022-08-05T16:48:51.746Z,99529.97
2022-08-05T16:51:19.282Z,99523.03
2022-08-05T16:54:04.898Z,99519.59
2022-08-05T16:56:35.399Z,99514.31
2022-08-05T16:59:08.361Z,99526.44
2022-08-05T17:01:54.204Z,99528.22
2022-08-05T17:04:26.129Z,99517.53
2022-08-05T17:06:55.483Z,99528.09
2022-08-05T17:09:22.970Z,99524.66
2022-08-05T17:11:56.056Z,99526.50
2022-08-05T17:14:37.602Z,99525.72
2022-08-05T17:17:06.774Z,99523.38
2022-08-05T17:19:43.873Z,99529.41
2022-08-05T17:22:17.864Z,99526.84
2022-08-05T17:24:51.289Z,99523.97
2022-08-05T17:27:26.155Z,99530.16
2022-08-05T17:30:00.654Z,99530.22
2022-08-05T17:32:29.214Z,99522.94
2022-08-05T17:34:58.147Z,99525.88
2022-08-05T17:37:41.437Z,99531.06
2022-08-05T17:40:14.984Z,99533.16
2022-08-05T17:42:51.281Z,99522.41
2022-08-05T17:45:22.276Z,99516.84
2022-08-05T17:47:55.360Z,99513.66
2022-08-05T17:50:28.749Z,99526.88
2022-08-05T17:53:04.982Z,99520.00
2022-08-05T17:55:38.350Z,99520.91
2022-08-05T17:58:13.240Z,99516.19
2022-08-05T18:00:44.971Z,99524.31
2022-08-05T18:03:39.178Z,99531.75
2022-08-05T18:06:06.079Z,99527.44
2022-08-05T18:08:38.277Z,99526.47
2022-08-05T18:11:11.315Z,99524.78
2022-08-05T18:13:51.590Z,99529.75
2022-08-05T18:16:20.404Z,99518.84
2022-08-05T18:18:48.636Z,99525.63
2022-08-05T18:21:21.105Z,99529.13
2022-08-05T18:23:53.712Z,99529.94
2022-08-05T18:26:29.332Z,99533.81
2022-08-05T18:28:59.152Z,99537.09
2022-08-05T18:31:33.768Z,99538.66
2022-08-05T18:34:03.385Z,99531.16
2022-08-05T18:36:35.493Z,99540.06
2022-08-05T18:39:04.367Z,99540.63
2022-08-05T18:41:56.779Z,99542.50
2022-08-05T18:44:25.834Z,99540.41
2022-08-05T18:47:04.071Z,99544.19
2022-08-05T18:49:58.280Z,99542.44
2022-08-05T18:52:35.900Z,99551.38
2022-08-05T18:55:06.093Z,99557.28
2022-08-05T18:57:43.200Z,99557.06
2022-08-05T19:00:20.392Z,99550.41
2022-08-05T19:02:48.909Z,99550.41
2022-08-05T19:06:11.758Z,99560.44
2022-08-05T19:08:07.709Z,99560.28
2022-08-05T19:10:40.581Z,99564.50
2022-08-05T19:13:12.404Z,99560.19
2022-08-05T19:15:57.602Z,99562.22
2022-08-05T19:18:27.484Z,99563.13
2022-08-05T19:20:55.866Z,99564.28
2022-08-05T19:24:06.253Z,99563.78
2022-08-05T19:26:11.208Z,99564.44
2022-08-05T19:28:43.412Z,99567.56
2022-08-05T19:31:13.545Z,99561.22
2022-08-05T19:33:48.550Z,99560.97
2022-08-05T19:36:29.609Z,99560.19
2022-08-05T19:39:00.651Z,99556.34
2022-08-05T19:42:05.427Z,99559.16
2022-08-05T19:44:19.039Z,99554.75
2022-08-05T19:46:47.341Z,99552.84
2022-08-05T19:49:17.906Z,99555.06
2022-08-05T19:52:09.286Z,99553.16
2022-08-05T19:54:36.892Z,99560.91
2022-08-05T19:57:09.084Z,99555.34
2022-08-05T20:00:00.265Z,99552.06
2022-08-05T20:02:27.700Z,99551.81
2022-08-05T20:04:58.500Z,99556.19
2022-08-05T20:07:45.657Z,99554.84
2022-08-05T20:10:16.078Z,99555.16
2022-08-05T20:12:45.990Z,99562.06
2022-08-05T20:15:22.916Z,99563.75
2022-08-05T20:18:10.837Z,99560.44
2022-08-05T20:20:57.340Z,99568.22
2022-08-05T20:23:39.293Z,99563.25
2022-08-05T20:26:16.057Z,99562.69
2022-08-05T20:28:46.295Z,99563.78
2022-08-05T20:31:16.600Z,99565.16
2022-08-05T20:33:45.324Z,99566.03
2022-08-05T20:36:16.372Z,99564.34
2022-08-05T20:38:54.498Z,99563.25
2022-08-05T20:41:44.278Z,99570.72
2022-08-05T20:44:29.739Z,99569.88
2022-08-05T20:47:03.267Z,99572.63
2022-08-05T20:49:37.804Z,99567.13
2022-08-05T20:52:08.690Z,99568.78
2022-08-05T20:54:55.218Z,99567.09
2022-08-05T20:57:43.301Z,99573.19
2022-08-05T21:00:41.139Z,99576.78
2022-08-05T21:03:07.146Z,99568.75
2022-08-05T21:05:54.108Z,99569.31
2022-08-05T21:08:31.716Z,99571.50
2022-08-05T21:11:09.340Z,99562.66
2022-08-05T21:13:47.443Z,99558.19
2022-08-05T21:16:29.765Z,99565.34
2022-08-05T21:19:00.864Z,99563.13
2022-08-05T21:21:39.019Z,99564.22
2022-08-05T21:24:15.620Z,99562.53
2022-08-05T21:26:53.163Z,99567.53
2022-08-05T21:29:26.437Z,99565.84
2022-08-05T21:31:53.632Z,99561.41
2022-08-05T21:34:22.106Z,99569.69
2022-08-05T21:36:50.031Z,99568.84
2022-08-05T21:39:26.866Z,99562.47
2022-08-05T21:42:01.093Z,99565.22
2022-08-05T21:44:31.682Z,99572.97
2022-08-05T21:46:58.900Z,99569.63
2022-08-05T21:49:56.816Z,99571.84
2022-08-05T21:52:21.573Z,99573.78
2022-08-05T21:54:51.940Z,99575.69
2022-08-05T21:57:32.612Z,99576.28
2022-08-05T22:00:06.207Z,99578.22
2022-08-05T22:02:37.724Z,99576.56
2022-08-05T22:05:08.899Z,99579.03
2022-08-05T22:07:59.285Z,99573.94
2022-08-05T22:10:31.217Z,99576.22
2022-08-05T22:13:08.723Z,99574.59
2022-08-05T22:16:00.285Z,99568.84
2022-08-05T22:18:34.974Z,99573.00
2022-08-05T22:21:18.883Z,99576.28
2022-08-05T22:24:12.895Z,99574.66
2022-08-05T22:27:06.919Z,99570.78
2022-08-05T22:29:39.913Z,99559.72
2022-08-05T22:32:11.442Z,99566.94
2022-08-05T22:34:47.030Z,99567.47
2022-08-05T22:37:16.923Z,99563.06
2022-08-05T22:39:50.393Z,99557.81
2022-08-05T22:42:25.493Z,99560.84
2022-08-05T22:44:56.661Z,99563.28
2022-08-05T22:47:30.681Z,99567.44
2022-08-05T22:50:19.392Z,99556.91
2022-08-05T22:52:52.544Z,99561.88
2022-08-05T22:55:23.867Z,99556.34
2022-08-05T22:57:53.597Z,99558.53
2022-08-05T23:00:26.484Z,99551.34
2022-08-05T23:02:58.570Z,99551.34
2022-08-05T23:05:26.860Z,99540.81
2022-08-05T23:07:55.159Z,99554.38
2022-08-05T23:10:25.637Z,99548.03
2022-08-05T23:12:55.605Z,99554.06
2022-08-05T23:15:35.379Z,99552.94
2022-08-05T23:18:06.164Z,99553.41
2022-08-05T23:20:40.308Z,99553.09
2022-08-05T23:23:10.676Z,99547.84
2022-08-05T23:25:54.968Z,99548.38
2022-08-05T23:28:28.986Z,99546.16
2022-08-05T23:30:57.140Z,99546.19
2022-08-05T23:34:04.981Z,99536.00
2022-08-05T23:36:39.720Z,99546.50
2022-08-05T23:39:17.660Z,99541.97
2022-08-05T23:42:00.934Z,99543.69
2022-08-05T23:44:31.057Z,99541.28
2022-08-05T23:47:02.424Z,99538.31
2022-08-05T23:49:35.911Z,99535.41
2022-08-05T23:52:25.108Z,99527.56
2022-08-05T23:55:10.960Z,99532.94
2022-08-05T23:57:40.885Z,99527.97
